createdAt,value
2023-04-25T00:03:04.924Z,98512.96
2023-04-25T00:08:31.680Z,98503.91
2023-04-25T00:13:56.097Z,98497.00
2023-04-25T00:19:20.314Z,98500.39
2023-04-25T00:24:45.051Z,98499.06
2023-04-25T00:30:10.304Z,98497.01
2023-04-25T00:35:35.635Z,98496.02
2023-04-25T00:41:00.320Z,98496.27
2023-04-25T00:46:24.387Z,98505.08
2023-04-25T00:51:48.511Z,98504.58
2023-04-25T00:57:13.483Z,98508.87
2023-04-25T01:02:39.276Z,98511.02
2023-04-25T01:08:03.959Z,98511.23
2023-04-25T01:13:28.748Z,98507.08
2023-04-25T01:18:53.579Z,98505.38
2023-04-25T01:24:18.415Z,98506.65
2023-04-25T01:29:43.586Z,98511.95
2023-04-25T01:35:11.452Z,98509.89
2023-04-25T01:40:38.772Z,98508.73
2023-04-25T01:46:03.039Z,98512.38
2023-04-25T01:51:27.867Z,98511.64
2023-04-25T01:56:52.529Z,98509.54
2023-04-25T02:02:18.762Z,98505.69
2023-04-25T02:07:44.818Z,98503.11
2023-04-25T02:13:09.241Z,98507.04
2023-04-25T02:18:48.283Z,98502.97
2023-04-25T02:24:12.847Z,98502.52
2023-04-25T02:29:37.037Z,98503.52
2023-04-25T02:35:08.126Z,98497.96
2023-04-25T02:40:32.778Z,98497.08
2023-04-25T02:45:57.367Z,98500.84
2023-04-25T02:51:21.819Z,98498.23
2023-04-25T02:56:46.285Z,98495.96
2023-04-25T03:02:14.029Z,98499.25
2023-04-25T03:07:40.718Z,98496.65
2023-04-25T03:13:08.065Z,98494.33
2023-04-25T03:18:33.644Z,98496.67
2023-04-25T03:23:58.314Z,98495.46
2023-04-25T03:29:25.701Z,98493.85
2023-04-25T03:34:50.839Z,98494.75
2023-04-25T03:40:15.377Z,98493.07
2023-04-25T03:46:18.777Z,98496.20
2023-04-25T03:51:44.168Z,98503.67
2023-04-25T03:57:08.840Z,98500.50
2023-04-25T04:02:37.892Z,98499.90
2023-04-25T04:08:02.145Z,98509.42
2023-04-25T04:13:29.204Z,98506.98
2023-04-25T04:18:54.806Z,98507.80
2023-04-25T04:24:20.178Z,98512.25
2023-04-25T04:29:54.607Z,98516.21
2023-04-25T04:35:29.918Z,98517.64
2023-04-25T04:40:55.003Z,98517.87
2023-04-25T04:46:49.943Z,98516.32
2023-04-25T04:52:53.304Z,98516.50
2023-04-25T04:58:45.545Z,98512.79
2023-04-25T05:04:19.588Z,98515.48
2023-04-25T05:09:56.659Z,98518.73
2023-04-25T05:15:38.288Z,98520.15
2023-04-25T05:21:03.092Z,98515.57
2023-04-25T05:26:57.640Z,98518.33
2023-04-25T05:32:42.914Z,98513.34
2023-04-25T05:38:07.980Z,98512.10
2023-04-25T05:43:59.059Z,98507.17
2023-04-25T05:49:47.045Z,98506.08
2023-04-25T05:55:26.220Z,98504.70
2023-04-25T06:00:51.378Z,98507.08
2023-04-25T06:06:15.916Z,98508.59
2023-04-25T06:11:40.648Z,98506.15
2023-04-25T06:17:09.732Z,98509.90
2023-04-25T06:22:33.897Z,98508.60
2023-04-25T06:27:58.792Z,98508.75
2023-04-25T06:33:25.550Z,98499.94
2023-04-25T06:38:50.951Z,98502.40
2023-04-25T06:44:15.654Z,98497.42
2023-04-25T06:49:49.780Z,98495.42
2023-04-25T06:55:14.146Z,98490.92
2023-04-25T07:00:57.352Z,98490.37
2023-04-25T07:06:23.663Z,98485.40
2023-04-25T07:11:48.175Z,98487.58
2023-04-25T07:17:13.826Z,98489.05
2023-04-25T07:22:38.931Z,98487.52
2023-04-25T07:28:04.058Z,98494.67
2023-04-25T07:33:29.089Z,98489.48
2023-04-25T07:38:53.839Z,98488.66
2023-04-25T07:44:19.266Z,98489.61
2023-04-25T07:49:44.036Z,98492.19
2023-04-25T07:55:08.774Z,98489.73
2023-04-25T08:00:41.154Z,98486.05
2023-04-25T08:06:29.911Z,98491.33
2023-04-25T08:12:03.309Z,98495.55
2023-04-25T08:17:29.530Z,98501.89
2023-04-25T08:22:54.317Z,98500.29
2023-04-25T08:28:30.454Z,98507.75
2023-04-25T08:33:55.765Z,98502.09
2023-04-25T08:39:29.115Z,98502.62
2023-04-25T08:45:12.259Z,98513.75
2023-04-25T08:50:41.129Z,98518.23
2023-04-25T08:56:10.573Z,98513.69
2023-04-25T09:01:38.578Z,98515.84
2023-04-25T09:07:04.302Z,98516.45
2023-04-25T09:12:30.932Z,98525.63
2023-04-25T09:17:59.962Z,98536.64
2023-04-25T09:23:49.210Z,98526.39
2023-04-25T09:29:14.658Z,98532.59
2023-04-25T09:34:44.497Z,98545.13
2023-04-25T09:40:11.585Z,98541.14
2023-04-25T09:45:50.004Z,98543.17
2023-04-25T09:51:15.949Z,98544.72
2023-04-25T09:56:42.956Z,98551.06
2023-04-25T10:02:10.025Z,98550.94
2023-04-25T10:07:39.491Z,98547.48
2023-04-25T10:13:07.816Z,98546.23
2023-04-25T10:18:34.963Z,98551.16
2023-04-25T10:24:04.669Z,98552.95
2023-04-25T10:29:33.454Z,98547.79
2023-04-25T10:35:32.047Z,98550.06
2023-04-25T10:41:10.081Z,98547.58
2023-04-25T10:46:37.772Z,98550.07
2023-04-25T10:52:28.060Z,98559.53
2023-04-25T10:57:53.509Z,98556.40
2023-04-25T11:03:27.184Z,98550.73
2023-04-25T11:08:54.331Z,98542.91
2023-04-25T11:14:22.746Z,98549.14
2023-04-25T11:19:51.794Z,98560.46
2023-04-25T11:25:20.063Z,98563.30
2023-04-25T11:30:52.375Z,98564.45
2023-04-25T11:36:18.390Z,98570.20
2023-04-25T11:41:45.945Z,98572.61
2023-04-25T11:47:11.291Z,98580.42
2023-04-25T11:52:49.282Z,98582.70
2023-04-25T11:58:18.421Z,98574.02
2023-04-25T12:03:49.349Z,98569.50
2023-04-25T12:09:17.786Z,98574.67
2023-04-25T12:14:53.536Z,98574.19
2023-04-25T12:20:37.703Z,98576.46
2023-04-25T12:26:05.078Z,98587.92
2023-04-25T12:31:34.415Z,98580.27
2023-04-25T12:37:00.728Z,98580.80
2023-04-25T12:42:25.106Z,98592.73
2023-04-25T12:47:49.741Z,98606.33
2023-04-25T12:53:14.116Z,98618.03
2023-04-25T12:58:38.772Z,98627.30
2023-04-25T13:04:03.662Z,98641.20
2023-04-25T13:09:30.355Z,98643.27
2023-04-25T13:14:56.234Z,98648.48
2023-04-25T13:20:23.585Z,98649.14
2023-04-25T13:25:49.331Z,98651.67
2023-04-25T13:31:13.835Z,98658.53
2023-04-25T13:36:38.686Z,98673.04
2023-04-25T13:42:03.353Z,98680.23
2023-04-25T13:47:28.331Z,98685.63
2023-04-25T13:52:52.967Z,98688.80
2023-04-25T13:58:16.853Z,98694.80
2023-04-25T14:03:41.345Z,98697.51
2023-04-25T14:09:06.505Z,98703.42
2023-04-25T14:14:36.154Z,98696.42
2023-04-25T14:20:02.340Z,98694.72
2023-04-25T14:25:32.149Z,98703.69
2023-04-25T14:30:58.559Z,98715.29
2023-04-25T14:36:23.746Z,98727.33
2023-04-25T14:41:51.249Z,98736.33
2023-04-25T14:47:18.970Z,98745.94
2023-04-25T14:52:47.214Z,98773.23
2023-04-25T14:58:14.746Z,98787.09
2023-04-25T15:03:40.458Z,98786.82
2023-04-25T15:09:08.231Z,98793.11
2023-04-25T15:14:33.420Z,98784.31
2023-04-25T15:20:01.460Z,98777.49
2023-04-25T15:25:29.981Z,98781.08
2023-04-25T15:30:55.638Z,98782.06
2023-04-25T15:36:22.976Z,98785.71
2023-04-25T15:41:49.425Z,98787.14
2023-04-25T15:47:17.842Z,98786.52
2023-04-25T15:52:46.912Z,98786.88
2023-04-25T15:58:14.504Z,98791.89
2023-04-25T16:03:40.014Z,98793.96
2023-04-25T16:09:05.004Z,98794.07
2023-04-25T16:14:29.305Z,98795.40
2023-04-25T16:19:53.749Z,98799.80
2023-04-25T16:25:18.751Z,98796.80
2023-04-25T16:30:44.066Z,98798.02
2023-04-25T16:36:09.008Z,98802.16
2023-04-25T16:41:33.489Z,98803.62
2023-04-25T16:46:57.630Z,98803.39
2023-04-25T16:52:24.063Z,98801.66
2023-04-25T16:57:49.119Z,98804.57
2023-04-25T17:03:14.425Z,98807.75
2023-04-25T17:08:39.325Z,98816.31
2023-04-25T17:14:03.996Z,98826.89
2023-04-25T17:19:28.844Z,98828.38
2023-04-25T17:24:54.649Z,98841.67
2023-04-25T17:30:20.710Z,98852.14
2023-04-25T17:35:45.323Z,98866.81
2023-04-25T17:41:11.153Z,98867.11
2023-04-25T17:46:35.804Z,98870.67
2023-04-25T17:52:01.525Z,98876.11
2023-04-25T17:57:26.104Z,98884.96
2023-04-25T18:02:52.407Z,98885.30
2023-04-25T18:08:17.302Z,98890.14
2023-04-25T18:13:43.229Z,98899.00
2023-04-25T18:19:55.991Z,98906.23
2023-04-25T18:25:36.280Z,98909.17
2023-04-25T18:31:00.389Z,98920.38
2023-04-25T18:37:00.994Z,98930.95
2023-04-25T18:43:00.566Z,98941.55
2023-04-25T18:49:01.076Z,98949.30
2023-04-25T19:18:59.087Z,98973.06
2023-04-25T19:24:23.998Z,98974.39
2023-04-25T19:29:48.609Z,98981.84
2023-04-25T19:35:13.721Z,98988.71
2023-04-25T19:40:39.278Z,98988.24
2023-04-25T19:46:04.110Z,98992.77
2023-04-25T19:51:29.607Z,98990.10
2023-04-25T19:56:55.084Z,98993.11
2023-04-25T20:02:21.751Z,98997.05
2023-04-25T20:07:46.080Z,98993.02
2023-04-25T20:13:12.045Z,98992.82
2023-04-25T20:18:36.626Z,98991.38
2023-04-25T20:24:02.163Z,98996.42
2023-04-25T20:29:27.097Z,99000.53
2023-04-25T20:34:51.149Z,99003.13
2023-04-25T20:40:16.277Z,98999.23
2023-04-25T20:45:40.893Z,99005.67
2023-04-25T20:51:07.429Z,99004.98
2023-04-25T20:56:33.438Z,99003.76
2023-04-25T21:01:58.932Z,99004.58
2023-04-25T21:07:23.640Z,99009.14
2023-04-25T21:12:50.189Z,99012.23
2023-04-25T21:18:14.688Z,99014.06
2023-04-25T21:23:39.049Z,99010.43
2023-04-25T21:29:04.904Z,99011.94
2023-04-25T21:34:29.664Z,99011.41
2023-04-25T21:39:54.846Z,99014.64
2023-04-25T21:45:20.354Z,99018.27
2023-04-25T21:50:45.170Z,99021.40
2023-04-25T21:56:09.482Z,99024.14
2023-04-25T22:01:34.738Z,99030.87
2023-04-25T22:06:59.611Z,99034.33
2023-04-25T22:12:24.248Z,99037.27
2023-04-25T22:17:49.045Z,99037.99
2023-04-25T22:23:13.306Z,99046.48
2023-04-25T22:28:38.045Z,99054.31
2023-04-25T22:34:03.207Z,99059.40
2023-04-25T22:39:28.553Z,99064.23
2023-04-25T22:44:53.268Z,99066.48
2023-04-25T22:50:18.251Z,99066.73
2023-04-25T22:55:44.621Z,99070.98
2023-04-25T23:01:09.206Z,99076.15
2023-04-25T23:06:35.144Z,99079.58
2023-04-25T23:12:00.194Z,99084.98
2023-04-25T23:17:24.601Z,99082.95
2023-04-25T23:22:49.243Z,99086.38
2023-04-25T23:28:13.859Z,99086.86
2023-04-25T23:33:38.387Z,99088.67
2023-04-25T23:39:03.887Z,99091.32
2023-04-25T23:44:28.174Z,99098.23
2023-04-25T23:49:52.365Z,99098.73
2023-04-25T23:55:16.402Z,99100.66
